createdAt,value
2023-02-06T00:00:23.288Z,101518.59
2023-02-06T00:01:26.833Z,101525.72
2023-02-06T00:02:29.118Z,101523.56
2023-02-06T00:03:31.380Z,101528.25
2023-02-06T00:04:33.626Z,101533.72
2023-02-06T00:05:36.443Z,101527.44
2023-02-06T00:06:39.104Z,101527.06
2023-02-06T00:07:41.296Z,101527.47
2023-02-06T00:08:43.840Z,101527.66
2023-02-06T00:09:46.084Z,101531.75
2023-02-06T00:10:48.365Z,101526.50
2023-02-06T00:11:50.536Z,101529.84
2023-02-06T00:12:52.826Z,101522.63
2023-02-06T00:13:55.090Z,101517.34
2023-02-06T00:14:57.257Z,101513.59
2023-02-06T00:16:00.068Z,101517.06
2023-02-06T00:17:02.389Z,101526.56
2023-02-06T00:18:04.786Z,101508.59
2023-02-06T00:19:07.241Z,101506.78
2023-02-06T00:20:10.646Z,101510.22
2023-02-06T00:21:13.698Z,101499.78
2023-02-06T00:22:15.985Z,101522.06
2023-02-06T00:23:18.353Z,101514.09
2023-02-06T00:24:20.626Z,101509.66
2023-02-06T00:25:22.806Z,101497.56
2023-02-06T00:26:25.817Z,101500.16
2023-02-06T00:27:28.000Z,101501.91
2023-02-06T00:28:30.184Z,101502.84
2023-02-06T00:29:32.836Z,101509.81
2023-02-06T00:30:35.059Z,101511.47
2023-02-06T00:31:37.337Z,101507.34
2023-02-06T00:32:41.876Z,101509.97
2023-02-06T00:33:44.132Z,101496.09
2023-02-06T00:34:46.358Z,101506.75
2023-02-06T00:35:48.593Z,101502.53
2023-02-06T00:36:51.931Z,101499.28
2023-02-06T00:37:54.165Z,101505.03
2023-02-06T00:38:56.531Z,101499.94
2023-02-06T00:39:59.197Z,101499.28
2023-02-06T00:41:03.630Z,101514.47
2023-02-06T00:42:06.329Z,101506.00
2023-02-06T00:43:08.620Z,101513.22
2023-02-06T00:44:10.948Z,101512.13
2023-02-06T00:45:13.323Z,101511.31
2023-02-06T00:46:16.674Z,101502.72
2023-02-06T00:47:19.064Z,101501.06
2023-02-06T00:48:21.504Z,101512.97
2023-02-06T00:49:23.675Z,101510.53
2023-02-06T00:50:26.491Z,101507.44
2023-02-06T00:51:29.073Z,101515.16
2023-02-06T00:52:31.450Z,101520.44
2023-02-06T00:53:33.857Z,101511.59
2023-02-06T00:54:36.081Z,101517.50
2023-02-06T00:55:38.500Z,101515.50
2023-02-06T00:56:40.642Z,101524.97
2023-02-06T00:57:43.127Z,101522.47
2023-02-06T00:58:45.323Z,101515.97
2023-02-06T00:59:47.680Z,101515.59
2023-02-06T01:00:49.860Z,101520.31
2023-02-06T01:01:52.615Z,101521.41
2023-02-06T01:02:54.849Z,101519.84
2023-02-06T01:03:57.273Z,101525.03
2023-02-06T01:04:59.871Z,101524.28
2023-02-06T01:06:02.039Z,101523.22
2023-02-06T01:07:04.202Z,101529.53
2023-02-06T01:08:06.866Z,101525.41
2023-02-06T01:09:09.339Z,101524.78
2023-02-06T01:10:12.334Z,101532.84
2023-02-06T01:11:18.070Z,101537.00
2023-02-06T01:12:20.322Z,101530.19
2023-02-06T01:13:23.187Z,101520.50
2023-02-06T01:14:25.394Z,101531.69
2023-02-06T01:15:27.590Z,101527.19
2023-02-06T01:16:29.963Z,101528.69
2023-02-06T01:17:33.596Z,101529.25
2023-02-06T01:18:35.922Z,101530.50
2023-02-06T01:19:38.812Z,101516.66
2023-02-06T01:20:41.163Z,101525.00
2023-02-06T01:21:43.456Z,101519.56
2023-02-06T01:22:45.709Z,101527.28
2023-02-06T01:23:50.128Z,101518.03
2023-02-06T01:24:52.689Z,101520.41
2023-02-06T01:25:54.890Z,101518.59
2023-02-06T01:26:57.242Z,101524.22
2023-02-06T01:27:59.788Z,101517.69
2023-02-06T01:29:02.449Z,101520.56
2023-02-06T01:30:06.728Z,101519.09
2023-02-06T01:31:11.900Z,101518.25
2023-02-06T01:32:14.142Z,101527.91
2023-02-06T01:33:16.420Z,101515.75
2023-02-06T01:34:19.321Z,101516.84
2023-02-06T01:35:21.546Z,101520.00
2023-02-06T01:36:24.782Z,101523.13
2023-02-06T01:37:28.833Z,101522.28
2023-02-06T01:38:31.175Z,101524.53
2023-02-06T01:39:33.534Z,101522.84
2023-02-06T01:40:36.206Z,101529.16
2023-02-06T01:41:38.870Z,101527.47
2023-02-06T01:42:41.283Z,101523.69
2023-02-06T01:43:46.896Z,101534.53
2023-02-06T01:44:49.092Z,101528.66
2023-02-06T01:45:52.949Z,101533.63
2023-02-06T01:46:57.076Z,101527.66
2023-02-06T01:48:03.718Z,101519.84
2023-02-06T01:49:20.077Z,101521.75
2023-02-06T01:50:22.800Z,101520.78
2023-02-06T01:51:26.733Z,101519.34
2023-02-06T01:52:30.850Z,101518.31
2023-02-06T01:53:34.669Z,101520.66
2023-02-06T01:54:37.052Z,101510.38
2023-02-06T01:55:42.642Z,101511.09
2023-02-06T01:56:49.931Z,101509.63
2023-02-06T01:57:52.332Z,101514.56
2023-02-06T01:59:00.099Z,101502.53
2023-02-06T02:02:08.817Z,101509.63
2023-02-06T02:03:11.820Z,101512.13
2023-02-06T02:04:18.072Z,101511.00
2023-02-06T02:05:20.676Z,101512.53
2023-02-06T02:06:26.434Z,101507.34
2023-02-06T02:07:41.308Z,101511.72
2023-02-06T02:08:46.399Z,101502.69
2023-02-06T02:09:48.753Z,101508.19
2023-02-06T02:10:52.216Z,101502.09
2023-02-06T02:11:54.349Z,101500.94
2023-02-06T02:12:56.805Z,101503.44
2023-02-06T02:14:00.524Z,101506.03
2023-02-06T02:15:02.822Z,101507.91
2023-02-06T02:16:14.529Z,101502.09
2023-02-06T02:17:30.029Z,101496.19
2023-02-06T02:18:46.132Z,101495.25
2023-02-06T02:20:06.458Z,101491.81
2023-02-06T02:21:38.072Z,101489.91
2023-02-06T02:23:06.504Z,101495.25
2023-02-06T02:24:12.522Z,101503.91
2023-02-06T02:25:55.315Z,101496.13
2023-02-06T02:27:38.138Z,101502.84
2023-02-06T02:29:28.499Z,101495.09
2023-02-06T02:31:02.689Z,101510.88
2023-02-06T02:32:43.049Z,101511.22
2023-02-06T02:34:08.787Z,101502.84
2023-02-06T02:35:28.986Z,101502.66
2023-02-06T02:36:43.530Z,101502.47
2023-02-06T02:38:10.656Z,101503.56
2023-02-06T02:39:44.234Z,101491.72
2023-02-06T02:40:51.346Z,101495.50
2023-02-06T02:42:05.336Z,101503.41
2023-02-06T02:43:25.961Z,101497.00
2023-02-06T02:44:51.335Z,101502.91
2023-02-06T02:46:19.302Z,101498.47
2023-02-06T02:47:29.734Z,101496.63
2023-02-06T02:48:40.965Z,101499.16
2023-02-06T02:49:45.865Z,101490.28
2023-02-06T02:50:48.968Z,101486.75
2023-02-06T02:51:52.052Z,101493.56
2023-02-06T02:52:54.459Z,101482.63
2023-02-06T02:53:57.872Z,101488.66
2023-02-06T02:55:00.424Z,101493.78
2023-02-06T02:56:03.238Z,101496.09
2023-02-06T02:57:22.566Z,101494.25
2023-02-06T02:58:33.616Z,101499.34
2023-02-06T02:59:39.841Z,101494.94
2023-02-06T03:00:54.555Z,101502.22
2023-02-06T03:02:02.060Z,101498.75
2023-02-06T03:03:08.248Z,101500.78
2023-02-06T03:04:16.268Z,101494.97
2023-02-06T03:05:23.103Z,101488.75
2023-02-06T03:06:42.381Z,101499.09
2023-02-06T03:08:15.438Z,101498.41
2023-02-06T03:09:44.303Z,101502.53
2023-02-06T03:10:57.154Z,101502.13
2023-02-06T03:12:10.211Z,101501.78
2023-02-06T03:13:57.291Z,101499.03
2023-02-06T03:15:05.587Z,101497.97
2023-02-06T03:16:15.224Z,101498.78
2023-02-06T03:17:28.252Z,101497.56
2023-02-06T03:18:48.837Z,101502.00
2023-02-06T03:19:55.219Z,101503.94
2023-02-06T03:21:00.283Z,101504.59
2023-02-06T03:22:04.947Z,101502.81
2023-02-06T03:23:11.897Z,101507.31
2023-02-06T03:24:19.124Z,101511.69
2023-02-06T03:25:28.855Z,101512.34
2023-02-06T03:26:32.717Z,101502.16
2023-02-06T03:27:39.274Z,101503.19
2023-02-06T03:28:49.808Z,101504.31
2023-02-06T03:29:53.311Z,101511.72
2023-02-06T03:30:58.202Z,101513.22
2023-02-06T03:32:26.108Z,101511.03
2023-02-06T03:33:35.094Z,101514.41
2023-02-06T03:34:46.019Z,101512.78
2023-02-06T03:35:49.497Z,101505.16
2023-02-06T03:36:52.859Z,101506.69
2023-02-06T03:37:55.132Z,101506.56
2023-02-06T03:38:57.468Z,101506.50
2023-02-06T03:40:01.240Z,101493.59
2023-02-06T03:41:06.137Z,101500.03
2023-02-06T03:42:11.677Z,101488.34
2023-02-06T03:43:18.620Z,101493.56
2023-02-06T03:44:24.653Z,101496.38
2023-02-06T03:45:42.224Z,101482.88
2023-02-06T03:46:46.328Z,101495.63
2023-02-06T03:47:50.386Z,101492.50
2023-02-06T03:48:55.984Z,101496.22
2023-02-06T03:50:00.550Z,101490.97
2023-02-06T03:51:09.615Z,101495.50
2023-02-06T03:52:20.840Z,101495.53
2023-02-06T03:53:25.525Z,101501.72
2023-02-06T03:54:29.303Z,101488.84
2023-02-06T03:55:31.686Z,101492.19
2023-02-06T03:56:43.253Z,101499.94
2023-02-06T03:57:50.008Z,101495.16
2023-02-06T03:58:52.244Z,101495.13
2023-02-06T03:59:54.756Z,101500.81
2023-02-06T04:00:57.167Z,101501.84
2023-02-06T04:02:03.367Z,101502.84
2023-02-06T04:03:06.270Z,101506.16
2023-02-06T04:04:08.449Z,101493.94
2023-02-06T04:05:10.718Z,101497.66
2023-02-06T04:06:12.970Z,101496.81
2023-02-06T04:07:26.688Z,101489.13
2023-02-06T04:08:28.852Z,101497.63
2023-02-06T04:09:31.015Z,101498.94
2023-02-06T04:10:33.581Z,101498.44
2023-02-06T04:11:35.807Z,101495.91
2023-02-06T04:12:38.400Z,101495.94
2023-02-06T04:13:40.592Z,101493.91
2023-02-06T04:14:43.191Z,101486.81
2023-02-06T04:15:45.393Z,101493.50
2023-02-06T04:16:48.066Z,101499.41
2023-02-06T04:17:59.915Z,101502.78
2023-02-06T04:19:03.005Z,101498.94
2023-02-06T04:20:06.258Z,101498.41
2023-02-06T04:21:08.804Z,101497.81
2023-02-06T04:22:14.049Z,101502.03
2023-02-06T04:23:16.444Z,101505.56
2023-02-06T04:24:18.602Z,101510.47
2023-02-06T04:25:20.837Z,101511.84
2023-02-06T04:26:23.049Z,101503.06
2023-02-06T04:27:25.378Z,101507.59
2023-02-06T04:28:27.704Z,101506.69
2023-02-06T04:29:31.061Z,101501.56
2023-02-06T04:30:33.286Z,101505.78
2023-02-06T04:31:35.622Z,101495.28
2023-02-06T04:32:37.834Z,101495.84
2023-02-06T04:33:40.110Z,101499.06
2023-02-06T04:34:42.272Z,101505.41
2023-02-06T04:35:44.504Z,101497.28
2023-02-06T04:36:46.705Z,101501.88
2023-02-06T04:37:48.867Z,101508.97
2023-02-06T04:38:51.207Z,101505.38
2023-02-06T04:39:53.402Z,101495.34
2023-02-06T04:40:55.590Z,101507.44
2023-02-06T04:41:57.789Z,101508.59
2023-02-06T04:43:00.096Z,101514.75
2023-02-06T04:44:02.420Z,101497.63
2023-02-06T04:45:04.896Z,101503.69
2023-02-06T04:46:07.169Z,101499.69
2023-02-06T04:47:09.384Z,101505.34
2023-02-06T04:48:11.568Z,101501.75
2023-02-06T04:49:14.882Z,101496.09
2023-02-06T04:50:18.108Z,101501.38
2023-02-06T04:51:20.340Z,101507.53
2023-02-06T04:52:22.584Z,101508.72
2023-02-06T04:53:24.760Z,101508.78
2023-02-06T04:54:26.964Z,101506.06
2023-02-06T04:55:29.210Z,101506.22
2023-02-06T04:56:31.512Z,101503.06
2023-02-06T04:57:33.805Z,101506.09
2023-02-06T04:58:39.370Z,101507.84
2023-02-06T04:59:41.601Z,101513.78
2023-02-06T05:00:43.892Z,101508.53
2023-02-06T05:01:46.178Z,101502.88
2023-02-06T05:02:48.422Z,101505.94
2023-02-06T05:03:50.771Z,101500.44
2023-02-06T05:04:53.095Z,101501.88
2023-02-06T05:05:59.366Z,101503.94
2023-02-06T05:07:02.348Z,101513.66
2023-02-06T05:08:05.306Z,101506.78
2023-02-06T05:09:07.576Z,101510.06
2023-02-06T05:10:09.938Z,101512.19
2023-02-06T05:11:12.619Z,101504.97
2023-02-06T05:12:14.806Z,101501.06
2023-02-06T05:13:16.958Z,101496.22
2023-02-06T05:14:19.201Z,101492.72
2023-02-06T05:15:22.040Z,101487.34
2023-02-06T05:16:24.418Z,101499.72
2023-02-06T05:17:26.847Z,101500.00
2023-02-06T05:18:29.024Z,101491.09
2023-02-06T05:19:31.228Z,101497.94
2023-02-06T05:20:33.464Z,101491.91
2023-02-06T05:21:35.649Z,101495.09
2023-02-06T05:22:37.878Z,101498.69
2023-02-06T05:23:40.705Z,101496.09
2023-02-06T05:24:42.919Z,101500.25
2023-02-06T05:25:45.163Z,101501.81
2023-02-06T05:26:47.350Z,101500.47
2023-02-06T05:27:51.367Z,101508.66
2023-02-06T05:28:53.655Z,101506.50
2023-02-06T05:29:55.932Z,101506.91
2023-02-06T05:30:58.266Z,101506.22
2023-02-06T05:32:00.527Z,101509.75
2023-02-06T05:33:03.037Z,101513.31
2023-02-06T05:34:05.302Z,101513.25
2023-02-06T05:35:07.861Z,101502.72
2023-02-06T05:36:10.069Z,101505.31
2023-02-06T05:37:12.367Z,101501.06
2023-02-06T05:38:14.624Z,101501.69
2023-02-06T05:39:16.902Z,101500.38
2023-02-06T05:40:19.269Z,101509.75
2023-02-06T05:41:21.498Z,101505.38
2023-02-06T05:42:23.868Z,101504.66
2023-02-06T05:43:26.134Z,101514.09
2023-02-06T05:44:28.397Z,101512.28
2023-02-06T05:45:30.592Z,101503.00
2023-02-06T05:46:32.831Z,101511.28
2023-02-06T05:47:35.051Z,101506.91
2023-02-06T05:48:37.334Z,101503.38
2023-02-06T05:49:39.654Z,101514.44
2023-02-06T05:50:43.298Z,101512.78
2023-02-06T05:51:50.242Z,101514.41
2023-02-06T05:52:52.479Z,101516.03
2023-02-06T05:53:54.888Z,101513.28
2023-02-06T05:54:57.153Z,101519.22
2023-02-06T05:55:59.409Z,101514.91
2023-02-06T05:57:02.049Z,101510.97
2023-02-06T05:58:06.283Z,101512.78
2023-02-06T05:59:08.627Z,101503.41
2023-02-06T06:00:11.922Z,101509.31
2023-02-06T06:01:14.310Z,101511.34
2023-02-06T06:02:16.529Z,101507.81
2023-02-06T06:03:19.117Z,101506.84
2023-02-06T06:04:21.531Z,101502.44
2023-02-06T06:05:23.820Z,101513.50
2023-02-06T06:06:26.146Z,101516.94
2023-02-06T06:07:28.372Z,101514.56
2023-02-06T06:08:30.610Z,101512.50
2023-02-06T06:09:32.812Z,101521.09
2023-02-06T06:10:35.290Z,101522.66
2023-02-06T06:11:37.503Z,101515.69
2023-02-06T06:12:39.741Z,101515.69
2023-02-06T06:13:41.982Z,101509.03
2023-02-06T06:14:44.208Z,101514.34
2023-02-06T06:15:50.337Z,101510.13
2023-02-06T06:16:52.807Z,101513.50
2023-02-06T06:17:55.127Z,101517.78
2023-02-06T06:18:57.490Z,101525.69
2023-02-06T06:19:59.761Z,101520.63
2023-02-06T06:21:01.988Z,101518.09
2023-02-06T06:22:04.292Z,101515.34
2023-02-06T06:23:06.567Z,101517.88
2023-02-06T06:24:08.800Z,101521.25
2023-02-06T06:25:11.078Z,101517.78
2023-02-06T06:26:13.341Z,101518.44
2023-02-06T06:27:15.869Z,101527.28
2023-02-06T06:28:18.091Z,101519.50
2023-02-06T06:29:20.325Z,101511.97
2023-02-06T06:30:22.560Z,101511.03
2023-02-06T06:31:25.018Z,101516.19
2023-02-06T06:32:27.256Z,101514.72
2023-02-06T06:33:29.569Z,101517.38
2023-02-06T06:34:31.901Z,101520.63
2023-02-06T06:35:34.752Z,101519.94
2023-02-06T06:36:37.289Z,101520.63
2023-02-06T06:37:39.447Z,101527.44
2023-02-06T06:38:41.674Z,101529.22
2023-02-06T06:39:43.964Z,101528.22
2023-02-06T06:40:46.174Z,101534.25
2023-02-06T06:41:48.415Z,101531.94
2023-02-06T06:42:50.696Z,101529.41
2023-02-06T06:43:58.468Z,101524.00
2023-02-06T06:45:00.678Z,101525.69
2023-02-06T06:46:04.802Z,101521.66
2023-02-06T06:47:07.081Z,101520.00
2023-02-06T06:48:09.477Z,101521.06
2023-02-06T06:49:11.813Z,101516.53
2023-02-06T06:50:14.141Z,101522.38
2023-02-06T06:51:16.550Z,101523.31
2023-02-06T06:52:25.010Z,101514.03
2023-02-06T06:53:28.359Z,101512.63
2023-02-06T06:54:30.595Z,101505.81
2023-02-06T06:55:33.191Z,101505.34
2023-02-06T06:56:35.340Z,101502.09
2023-02-06T06:57:37.504Z,101508.91
2023-02-06T06:58:40.080Z,101506.16
2023-02-06T06:59:42.326Z,101495.34
2023-02-06T07:00:44.821Z,101490.31
2023-02-06T07:01:48.873Z,101488.66
2023-02-06T07:02:51.172Z,101487.03
2023-02-06T07:03:53.595Z,101489.31
2023-02-06T07:04:56.068Z,101481.56
2023-02-06T07:05:58.333Z,101478.97
2023-02-06T07:07:00.655Z,101492.91
2023-02-06T07:08:02.930Z,101499.69
2023-02-06T07:09:05.153Z,101507.69
2023-02-06T07:10:08.214Z,101510.28
2023-02-06T07:11:14.684Z,101511.22
2023-02-06T07:12:17.009Z,101517.63
2023-02-06T07:13:19.198Z,101524.34
2023-02-06T07:14:21.372Z,101520.53
2023-02-06T07:15:23.829Z,101537.50
2023-02-06T07:16:26.115Z,101532.69
2023-02-06T07:17:28.314Z,101525.91
2023-02-06T07:18:30.551Z,101519.63
2023-02-06T07:19:32.782Z,101527.84
2023-02-06T07:20:37.912Z,101541.88
2023-02-06T07:21:40.127Z,101539.59
2023-02-06T07:22:42.352Z,101532.97
2023-02-06T07:23:44.564Z,101530.56
2023-02-06T07:24:46.707Z,101529.47
2023-02-06T07:25:49.547Z,101530.53
2023-02-06T07:26:51.808Z,101527.00
2023-02-06T07:27:54.131Z,101529.31
2023-02-06T07:28:56.485Z,101534.34
2023-02-06T07:29:59.696Z,101529.31
2023-02-06T07:31:03.111Z,101536.22
2023-02-06T07:32:06.431Z,101537.91
2023-02-06T07:33:08.742Z,101531.94
2023-02-06T07:34:11.057Z,101539.56
2023-02-06T07:35:15.193Z,101533.38
2023-02-06T07:36:18.440Z,101532.44
2023-02-06T07:37:20.738Z,101527.09
2023-02-06T07:38:23.338Z,101525.47
2023-02-06T07:39:26.233Z,101536.66
2023-02-06T07:40:43.083Z,101535.53
2023-02-06T07:41:49.045Z,101522.28
2023-02-06T07:42:54.624Z,101527.41
2023-02-06T07:44:02.749Z,101526.63
2023-02-06T07:45:05.153Z,101532.13
2023-02-06T07:46:07.475Z,101531.75
2023-02-06T07:47:10.192Z,101534.25
2023-02-06T07:48:12.655Z,101537.81
2023-02-06T07:49:15.838Z,101529.91
2023-02-06T07:50:18.082Z,101532.47
2023-02-06T07:51:20.375Z,101528.25
2023-02-06T07:52:22.571Z,101531.63
2023-02-06T07:53:24.797Z,101529.78
2023-02-06T07:54:27.078Z,101529.56
2023-02-06T07:55:29.615Z,101518.59
2023-02-06T07:56:31.861Z,101518.69
2023-02-06T07:57:34.096Z,101510.56
2023-02-06T07:58:36.296Z,101523.91
2023-02-06T07:59:38.598Z,101522.19
2023-02-06T08:00:41.384Z,101519.81
2023-02-06T08:01:43.606Z,101517.91
2023-02-06T08:02:45.793Z,101511.78
2023-02-06T08:03:55.234Z,101504.06
2023-02-06T08:04:57.446Z,101510.97
2023-02-06T08:05:59.669Z,101518.91
2023-02-06T08:07:03.329Z,101525.09
2023-02-06T08:08:06.939Z,101523.34
2023-02-06T08:09:18.318Z,101527.69
2023-02-06T08:10:23.280Z,101526.16
2023-02-06T08:11:27.665Z,101529.31
2023-02-06T08:12:30.628Z,101530.09
2023-02-06T08:13:32.812Z,101532.81
2023-02-06T08:14:35.044Z,101537.84
2023-02-06T08:15:37.527Z,101541.41
2023-02-06T08:16:40.062Z,101538.28
2023-02-06T08:17:42.708Z,101538.03
2023-02-06T08:18:45.292Z,101536.47
2023-02-06T08:19:48.154Z,101530.31
2023-02-06T08:20:50.372Z,101533.00
2023-02-06T08:21:52.563Z,101533.44
2023-02-06T08:22:54.812Z,101526.41
2023-02-06T08:23:58.779Z,101533.78
2023-02-06T08:25:01.001Z,101519.09
2023-02-06T08:26:05.234Z,101530.19
2023-02-06T08:27:07.483Z,101525.75
2023-02-06T08:28:10.065Z,101530.47
2023-02-06T08:29:14.270Z,101532.28
2023-02-06T08:30:16.600Z,101522.72
2023-02-06T08:31:26.969Z,101528.00
2023-02-06T08:32:34.583Z,101524.03
2023-02-06T08:33:37.123Z,101523.06
2023-02-06T08:34:39.998Z,101536.22
2023-02-06T08:35:42.356Z,101530.94
2023-02-06T08:36:44.922Z,101534.47
2023-02-06T08:37:47.187Z,101534.56
2023-02-06T08:38:50.636Z,101526.31
2023-02-06T08:39:53.137Z,101525.81
2023-02-06T08:40:55.362Z,101521.53
2023-02-06T08:41:57.679Z,101524.03
2023-02-06T08:43:00.079Z,101525.81
2023-02-06T08:44:03.348Z,101526.91
2023-02-06T08:45:05.983Z,101526.16
2023-02-06T08:46:08.319Z,101516.88
2023-02-06T08:47:10.799Z,101535.13
2023-02-06T08:48:13.048Z,101528.28
2023-02-06T08:49:17.804Z,101529.47
2023-02-06T08:50:20.059Z,101530.00
2023-02-06T08:51:22.772Z,101535.31
2023-02-06T08:52:25.039Z,101533.00
2023-02-06T08:53:27.302Z,101537.56
2023-02-06T08:54:29.800Z,101527.50
2023-02-06T08:55:32.000Z,101528.91
2023-02-06T08:56:35.800Z,101536.91
2023-02-06T08:57:38.120Z,101539.44
2023-02-06T08:58:40.515Z,101537.56
2023-02-06T08:59:42.694Z,101534.00
2023-02-06T09:00:44.867Z,101529.69
2023-02-06T09:01:49.029Z,101537.31
2023-02-06T09:02:54.775Z,101537.81
2023-02-06T09:04:06.273Z,101546.63
2023-02-06T09:05:08.532Z,101545.41
2023-02-06T09:06:10.753Z,101534.72
2023-02-06T09:07:12.977Z,101541.50
2023-02-06T09:08:16.112Z,101528.13
2023-02-06T09:09:19.023Z,101527.91
2023-02-06T09:10:30.366Z,101528.56
2023-02-06T09:11:33.260Z,101525.94
2023-02-06T09:12:35.714Z,101519.81
2023-02-06T09:13:38.949Z,101521.91
2023-02-06T09:14:41.388Z,101525.38
2023-02-06T09:15:50.923Z,101518.91
2023-02-06T09:16:53.202Z,101520.53
2023-02-06T09:17:55.550Z,101513.94
2023-02-06T09:19:01.227Z,101500.56
2023-02-06T09:20:03.631Z,101511.53
2023-02-06T09:21:14.518Z,101513.84
2023-02-06T09:22:16.741Z,101513.38
2023-02-06T09:23:19.344Z,101508.84
2023-02-06T09:24:21.527Z,101514.50
2023-02-06T09:25:23.796Z,101508.97
2023-02-06T09:26:40.565Z,101512.84
2023-02-06T09:27:47.532Z,101507.72
2023-02-06T09:28:57.716Z,101508.81
2023-02-06T09:29:59.950Z,101500.59
2023-02-06T09:31:02.569Z,101502.66
2023-02-06T09:32:04.841Z,101510.94
2023-02-06T09:33:07.082Z,101505.69
2023-02-06T09:34:11.352Z,101493.84
2023-02-06T09:35:13.758Z,101505.16
2023-02-06T09:36:18.217Z,101503.97
2023-02-06T09:37:21.347Z,101495.53
2023-02-06T09:38:23.568Z,101496.16
2023-02-06T09:39:26.152Z,101488.81
2023-02-06T09:40:29.549Z,101492.78
2023-02-06T09:41:51.950Z,101494.16
2023-02-06T09:42:54.796Z,101494.47
2023-02-06T09:44:06.685Z,101501.63
2023-02-06T09:45:15.268Z,101484.19
2023-02-06T09:46:21.281Z,101499.72
2023-02-06T09:47:32.626Z,101491.56
2023-02-06T09:48:38.014Z,101496.19
2023-02-06T09:49:46.519Z,101495.25
2023-02-06T09:50:55.650Z,101486.81
2023-02-06T09:52:12.830Z,101489.34
2023-02-06T09:53:31.408Z,101491.31
2023-02-06T09:54:52.280Z,101499.47
2023-02-06T09:56:11.729Z,101497.94
2023-02-06T09:57:22.952Z,101496.16
2023-02-06T09:58:43.359Z,101501.03
2023-02-06T09:59:56.207Z,101496.56
2023-02-06T10:01:14.025Z,101497.94
2023-02-06T10:02:35.132Z,101492.69
2023-02-06T10:03:46.286Z,101492.41
2023-02-06T10:05:22.190Z,101496.59
2023-02-06T10:06:33.818Z,101493.97
2023-02-06T10:08:11.072Z,101481.16
2023-02-06T10:09:18.232Z,101469.47
2023-02-06T10:10:56.399Z,101470.22
2023-02-06T10:12:05.522Z,101475.69
2023-02-06T10:13:51.382Z,101468.88
2023-02-06T10:15:12.833Z,101465.41
2023-02-06T10:16:41.223Z,101466.19
2023-02-06T10:18:00.678Z,101468.31
2023-02-06T10:19:44.131Z,101461.97
2023-02-06T10:21:00.501Z,101442.28
2023-02-06T10:22:07.091Z,101457.66
2023-02-06T10:23:35.397Z,101446.50
2023-02-06T10:25:12.838Z,101460.22
2023-02-06T10:26:18.103Z,101461.69
2023-02-06T10:27:20.764Z,101467.78
2023-02-06T10:28:24.128Z,101464.94
2023-02-06T10:29:32.803Z,101465.94
2023-02-06T10:30:54.242Z,101464.16
2023-02-06T10:32:32.367Z,101464.53
2023-02-06T10:33:52.448Z,101462.94
2023-02-06T10:35:13.809Z,101452.38
2023-02-06T10:36:46.135Z,101453.81
2023-02-06T10:38:08.256Z,101439.31
2023-02-06T10:39:37.605Z,101452.28
2023-02-06T10:41:12.736Z,101449.56
2023-02-06T10:42:32.942Z,101445.84
2023-02-06T10:43:49.464Z,101447.53
2023-02-06T10:45:20.265Z,101430.06
2023-02-06T10:46:58.167Z,101446.34
2023-02-06T10:48:11.337Z,101443.53
2023-02-06T10:49:36.634Z,101440.66
2023-02-06T10:50:56.247Z,101444.03
2023-02-06T10:52:02.850Z,101448.47
2023-02-06T10:53:13.287Z,101445.72
2023-02-06T10:54:21.166Z,101446.88
2023-02-06T10:55:28.142Z,101442.81
2023-02-06T10:56:44.333Z,101436.88
2023-02-06T10:57:50.719Z,101440.25
2023-02-06T10:58:55.889Z,101444.81
2023-02-06T11:00:01.682Z,101437.81
2023-02-06T11:01:23.726Z,101440.31
2023-02-06T11:02:38.883Z,101436.19
2023-02-06T11:03:46.741Z,101440.50
2023-02-06T11:05:09.004Z,101442.16
2023-02-06T11:06:15.736Z,101438.06
2023-02-06T11:07:30.891Z,101437.28
2023-02-06T11:08:41.465Z,101443.56
2023-02-06T11:09:44.768Z,101435.38
2023-02-06T11:10:47.590Z,101429.53
2023-02-06T11:11:51.303Z,101429.78
2023-02-06T11:13:24.997Z,101421.88
2023-02-06T11:14:36.037Z,101426.50
2023-02-06T11:15:53.942Z,101422.44
2023-02-06T11:17:00.135Z,101419.59
2023-02-06T11:18:05.267Z,101424.34
2023-02-06T11:19:24.449Z,101429.41
2023-02-06T11:20:31.868Z,101429.47
2023-02-06T11:21:51.504Z,101422.25
2023-02-06T11:22:53.986Z,101422.34
2023-02-06T11:24:13.319Z,101418.38
2023-02-06T11:25:22.846Z,101418.91
2023-02-06T11:26:25.072Z,101417.28
2023-02-06T11:27:28.054Z,101424.72
2023-02-06T11:28:31.251Z,101419.00
2023-02-06T11:29:46.417Z,101421.84
2023-02-06T11:30:58.957Z,101415.09
2023-02-06T11:32:24.433Z,101412.00
2023-02-06T11:33:26.674Z,101410.63
2023-02-06T11:34:31.356Z,101418.88
2023-02-06T11:35:39.208Z,101419.19
2023-02-06T11:36:42.602Z,101411.31
2023-02-06T11:37:44.888Z,101415.72
2023-02-06T11:39:03.296Z,101416.25
2023-02-06T11:40:17.418Z,101409.81
2023-02-06T11:41:19.871Z,101413.66
2023-02-06T11:42:24.855Z,101411.75
2023-02-06T11:43:48.606Z,101405.03
2023-02-06T11:44:52.473Z,101407.38
2023-02-06T11:46:09.555Z,101417.63
2023-02-06T11:47:33.540Z,101415.84
2023-02-06T11:48:47.587Z,101410.94
2023-02-06T11:49:49.948Z,101413.50
2023-02-06T11:50:54.911Z,101409.47
2023-02-06T11:52:00.039Z,101415.50
2023-02-06T11:53:18.593Z,101412.03
2023-02-06T11:54:32.224Z,101414.09
2023-02-06T11:55:36.275Z,101417.25
2023-02-06T11:56:38.811Z,101403.50
2023-02-06T11:57:41.025Z,101414.66
2023-02-06T11:58:44.260Z,101415.94
2023-02-06T11:59:52.688Z,101419.63
2023-02-06T12:01:07.214Z,101414.13
2023-02-06T12:02:31.410Z,101416.22
2023-02-06T12:03:39.570Z,101417.56
2023-02-06T12:04:41.974Z,101410.72
2023-02-06T12:05:44.372Z,101415.53
2023-02-06T12:06:46.637Z,101413.97
2023-02-06T12:07:55.179Z,101411.69
2023-02-06T12:09:00.432Z,101410.25
2023-02-06T12:10:06.470Z,101407.53
2023-02-06T12:11:16.230Z,101398.72
2023-02-06T12:12:22.573Z,101405.25
2023-02-06T12:13:30.801Z,101406.97
2023-02-06T12:14:42.155Z,101399.66
2023-02-06T12:15:51.348Z,101402.59
2023-02-06T12:16:54.161Z,101392.50
2023-02-06T12:18:04.722Z,101385.72
2023-02-06T12:19:23.843Z,101391.16
2023-02-06T12:20:32.576Z,101384.22
2023-02-06T12:21:42.009Z,101380.78
2023-02-06T12:22:51.782Z,101389.59
2023-02-06T12:24:01.243Z,101387.88
2023-02-06T12:25:04.616Z,101382.84
2023-02-06T12:26:11.674Z,101373.22
2023-02-06T12:27:19.889Z,101376.91
2023-02-06T12:28:38.789Z,101374.31
2023-02-06T12:30:31.586Z,101377.34
2023-02-06T12:31:57.833Z,101373.53
2023-02-06T12:33:25.565Z,101377.41
2023-02-06T12:34:47.164Z,101375.59
2023-02-06T12:35:55.883Z,101373.06
2023-02-06T12:37:13.877Z,101377.03
2023-02-06T12:38:37.600Z,101367.38
2023-02-06T12:39:42.540Z,101369.47
2023-02-06T12:41:05.730Z,101371.69
2023-02-06T12:42:17.104Z,101376.59
2023-02-06T12:43:19.988Z,101364.13